Time;durP1;ratioP1;P1;durP2;ratioP2;P2;SDS_P1;SDS_P2;PMS_P1;PMS_P2;Temp;Humidity;BMP_temperature;BMP_pressure;BME280_temperature;BME280_humidity;BME280_pressure;Samples;Min_cycle;Max_cycle;Signal;HPM_P1;HPM_P2
2022/06/29 00:02:21;;;;;;;4.78;2.17;;;;;;;30.27;35.48;101348.69;143727;593;46010;-74
2022/06/29 00:04:48;;;;;;;3.83;2.55;;;;;;;30.29;35.80;101362.22;143725;647;47004;-75
2022/06/29 00:07:14;;;;;;;3.40;2.30;;;;;;;30.31;35.68;101379.34;143727;587;46006;-75
2022/06/29 00:09:41;;;;;;;4.32;2.20;;;;;;;30.32;34.99;101373.50;143728;582;46007;-75
2022/06/29 00:12:08;;;;;;;12.23;3.65;;;;;;;30.36;38.53;101402.19;143726;581;47919;-74
2022/06/29 00:14:41;;;;;;;17.65;3.95;;;;;;;30.27;43.36;101428.25;143724;568;47004;-76
2022/06/29 00:17:13;;;;;;;;;;;;;;;30.06;44.17;101418.47;143731;986;46006;-74
2022/06/29 00:19:41;;;;;;;6.25;2.20;;;;;;;29.89;42.82;101399.75;143732;587;47000;-70
2022/06/29 00:22:09;;;;;;;8.20;2.87;;;;;;;29.69;46.99;101375.31;143725;592;47010;-69
2022/06/29 00:24:35;;;;;;;5.65;2.55;;;;;;;29.36;47.60;101381.06;143723;620;47004;-69
2022/06/29 00:27:03;;;;;;;5.95;2.30;;;;;;;29.13;45.72;101367.12;143729;574;46006;-72
2022/06/29 00:29:29;;;;;;;5.87;2.37;;;;;;;29.02;46.23;101358.22;143726;590;47004;-72
2022/06/29 00:31:56;;;;;;;5.90;2.20;;;;;;;28.95;47.20;101355.03;143723;604;47010;-72
2022/06/29 00:34:22;;;;;;;6.60;2.60;;;;;;;28.83;50.76;101355.59;143723;625;47004;-71
2022/06/29 00:36:48;;;;;;;4.28;2.35;;;;;;;28.70;52.50;101349.69;143727;579;46007;-71
2022/06/29 00:39:15;;;;;;;4.53;2.60;;;;;;;28.53;52.48;101352.25;143727;602;47002;-72
2022/06/29 00:41:44;;;;;;;4.43;2.08;;;;;;;28.55;49.24;101356.34;143726;601;46010;-71
2022/06/29 00:44:18;;;;;;;3.87;2.22;;;;;;;28.49;50.95;101381.63;143725;611;46908;-72
2022/06/29 00:46:55;;;;;;;6.70;2.40;;;;;;;28.36;50.84;101378.50;143727;578;46006;-71
2022/06/29 00:49:23;;;;;;;4.87;2.05;;;;;;;28.25;52.51;101368.78;143726;589;47000;-71
2022/06/29 00:51:54;;;;;;;3.42;2.05;;;;;;;28.20;50.08;101360.56;143726;622;46010;-71
2022/06/29 00:54:24;;;;;;;4.55;2.35;;;;;;;28.19;50.77;101345.13;143723;573;47004;-72
2022/06/29 00:56:51;;;;;;;5.10;2.20;;;;;;;28.14;50.14;101346.88;143727;592;46006;-71
2022/06/29 00:59:25;;;;;;;3.47;2.00;;;;;;;28.14;51.48;101359.84;143727;577;47000;-71
2022/06/29 01:01:52;;;;;;;5.45;2.20;;;;;;;28.10;52.23;101367.09;143725;570;47008;-69
2022/06/29 01:04:18;;;;;;;5.25;2.20;;;;;;;28.05;49.91;101365.22;143724;585;47004;-69
2022/06/29 01:06:45;;;;;;;4.03;2.35;;;;;;;28.05;49.98;101361.66;143725;619;46922;-69
2022/06/29 01:09:11;;;;;;;3.15;1.85;;;;;;;28.02;49.81;101362.25;143727;578;47002;-72
2022/06/29 01:11:38;;;;;;;5.62;2.25;;;;;;;27.90;51.87;101346.16;143725;592;47010;-71
2022/06/29 01:14:04;;;;;;;5.68;2.65;;;;;;;27.86;51.29;101329.38;143726;569;47003;-70
2022/06/29 01:16:31;;;;;;;6.35;2.45;;;;;;;27.84;52.36;101315.06;143725;630;48000;-71
2022/06/29 01:18:57;;;;;;;7.37;2.35;;;;;;;27.83;52.36;101322.50;143725;590;47002;-70
2022/06/29 01:21:26;;;;;;;5.15;2.40;;;;;;;27.85;54.55;101316.69;143725;614;46010;-70
2022/06/29 01:23:53;;;;;;;5.53;2.22;;;;;;;27.89;53.26;101308.63;143724;596;47004;-71
2022/06/29 01:26:19;;;;;;;2.45;1.87;;;;;;;27.90;51.97;101297.25;143727;618;46006;-71
2022/06/29 01:28:46;;;;;;;4.00;2.10;;;;;;;27.92;50.12;101289.50;143727;607;47006;-70
2022/06/29 01:31:14;;;;;;;4.82;2.20;;;;;;;27.92;52.49;101295.03;143724;588;47012;-70
2022/06/29 01:33:40;;;;;;;1.98;1.77;;;;;;;27.88;50.96;101294.00;143725;597;47006;-70
2022/06/29 01:36:07;;;;;;;3.97;2.37;;;;;;;27.90;50.56;101286.22;143729;607;46009;-68
2022/06/29 01:38:36;;;;;;;3.08;2.20;;;;;;;27.94;49.75;101295.53;143728;582;47004;-69
2022/06/29 01:41:05;;;;;;;7.57;2.22;;;;;;;27.94;51.31;101301.06;143726;625;47010;-67
2022/06/29 01:43:32;;;;;;;2.67;1.70;;;;;;;27.94;50.50;101294.75;143724;582;47004;-69
2022/06/29 01:45:59;;;;;;;6.53;2.30;;;;;;;27.90;51.26;101296.47;143725;582;46008;-70
2022/06/29 01:48:25;;;;;;;3.25;2.05;;;;;;;27.82;52.14;101309.00;143730;605;46014;-70
2022/06/29 01:50:51;;;;;;;3.83;2.10;;;;;;;27.73;52.33;101311.63;143724;591;46030;-70
2022/06/29 01:53:18;;;;;;;6.15;2.28;;;;;;;27.68;51.64;101326.34;143723;582;47006;-70
2022/06/29 01:55:45;;;;;;;3.12;1.67;;;;;;;27.67;49.09;101318.34;143723;602;46008;-70
2022/06/29 01:58:12;;;;;;;2.90;1.85;;;;;;;27.64;47.95;101316.19;143724;609;47006;-69
2022/06/29 02:00:39;;;;;;;4.12;1.90;;;;;;;27.59;47.55;101316.28;143725;574;46012;-68
2022/06/29 02:03:05;;;;;;;3.37;1.80;;;;;;;27.57;47.40;101316.56;143726;596;46010;-69
2022/06/29 02:05:31;;;;;;;1.95;1.50;;;;;;;27.68;47.58;101328.28;143724;638;46008;-69
2022/06/29 02:07:58;;;;;;;3.45;1.75;;;;;;;27.67;47.79;101316.44;143725;606;47006;-68
2022/06/29 02:10:24;;;;;;;3.50;1.75;;;;;;;27.60;49.20;101321.50;143723;689;46012;-69
2022/06/29 02:12:51;;;;;;;5.10;2.37;;;;;;;27.51;50.43;101318.59;143724;604;47004;-69
2022/06/29 02:15:17;;;;;;;4.65;2.15;;;;;;;27.50;50.01;101324.44;143725;593;46008;-68
2022/06/29 02:17:44;;;;;;;2.78;2.05;;;;;;;27.57;49.27;101321.28;143723;594;47004;-68
2022/06/29 02:20:14;;;;;;;2.90;1.90;;;;;;;27.57;48.49;101316.56;143720;636;48011;-68
2022/06/29 02:22:40;;;;;;;2.50;1.75;;;;;;;27.60;47.76;101324.25;143723;654;47006;-68
2022/06/29 02:25:08;;;;;;;3.55;2.40;;;;;;;27.63;47.60;101318.13;143726;600;46024;-68
2022/06/29 02:27:41;;;;;;;3.80;1.77;;;;;;;27.62;47.45;101308.22;143725;569;47006;-68
2022/06/29 02:30:10;;;;;;;3.55;2.20;;;;;;;27.61;46.43;101305.78;143726;593;46013;-69
2022/06/29 02:35:20;;;;;;;5.30;2.80;;;;;;;27.65;47.28;101306.78;143724;575;46009;-68
2022/06/29 02:37:47;;;;;;;8.00;6.60;;;;;;;27.69;46.56;101303.16;143724;578;47006;-68
2022/06/29 02:40:13;;;;;;;7.00;4.55;;;;;;;27.75;46.70;101300.28;143728;594;46010;-68
2022/06/29 02:42:39;;;;;;;4.93;2.67;;;;;;;27.72;47.51;101306.41;143721;606;47007;-68
2022/06/29 02:45:06;;;;;;;7.40;2.12;;;;;;;27.69;47.71;101305.06;143726;581;46008;-68
2022/06/29 02:47:33;;;;;;;4.28;2.00;;;;;;;27.62;47.91;101294.44;143726;581;47006;-68
2022/06/29 02:49:59;;;;;;;6.18;2.03;;;;;;;27.54;48.53;101298.69;143724;628;46930;-68
2022/06/29 02:52:25;;;;;;;3.30;2.05;;;;;;;27.52;48.36;101308.41;143720;602;47006;-68
2022/06/29 02:54:52;;;;;;;4.07;2.00;;;;;;;27.51;48.83;101301.25;143724;627;46008;-68
2022/06/29 02:57:20;;;;;;;2.97;2.58;;;;;;;27.44;49.24;101303.50;143726;662;46013;-68
2022/06/29 02:59:47;;;;;;;3.05;1.87;;;;;;;27.37;50.09;101301.94;143725;615;46013;-69
2022/06/29 03:02:13;;;;;;;4.90;2.35;;;;;;;27.35;49.58;101298.69;143724;583;46929;-69
2022/06/29 03:04:40;;;;;;;3.83;2.08;;;;;;;27.36;48.70;101286.50;143726;649;46009;-68
2022/06/29 03:07:06;;;;;;;4.53;2.50;;;;;;;27.38;49.33;101295.31;143726;578;47002;-68
2022/06/29 03:09:32;;;;;;;5.55;2.40;;;;;;;27.33;49.63;101295.41;143723;608;47010;-68
2022/06/29 03:11:59;;;;;;;3.67;2.33;;;;;;;27.32;50.34;101303.94;143724;612;47002;-69
2022/06/29 03:14:25;;;;;;;7.10;2.03;;;;;;;27.32;49.87;101295.69;143725;592;46006;-69
2022/06/29 03:16:51;;;;;;;3.53;2.08;;;;;;;27.23;50.72;101307.41;143725;581;47000;-68
2022/06/29 03:19:18;;;;;;;4.68;2.22;;;;;;;27.22;49.78;101294.72;143725;589;46010;-68
2022/06/29 03:21:44;;;;;;;4.10;2.22;;;;;;;27.21;49.41;101301.34;143725;590;46011;-68
2022/06/29 03:24:11;;;;;;;4.35;1.90;;;;;;;27.28;49.06;101300.16;143723;611;46006;-69
2022/06/29 03:26:37;;;;;;;4.68;2.08;;;;;;;27.15;48.66;101307.25;143724;718;47004;-68
2022/06/29 03:29:03;;;;;;;4.87;2.15;;;;;;;27.17;48.54;101305.81;143725;687;46028;-69
2022/06/29 03:31:30;;;;;;;1.87;1.60;;;;;;;27.24;48.71;101302.69;143723;566;47004;-68
2022/06/29 03:33:58;;;;;;;5.30;2.40;;;;;;;27.26;48.32;101300.47;143725;599;46006;-68
2022/06/29 03:36:24;;;;;;;2.58;1.85;;;;;;;27.24;48.79;101314.56;143724;626;47004;-69
2022/06/29 03:38:51;;;;;;;5.40;2.25;;;;;;;27.26;49.98;101316.19;143725;581;46026;-68
2022/06/29 03:41:17;;;;;;;6.65;2.80;;;;;;;27.27;49.88;101309.56;143725;600;47002;-69
2022/06/29 03:43:43;;;;;;;4.87;2.10;;;;;;;27.28;50.42;101302.91;143724;567;47007;-69
2022/06/29 03:46:10;;;;;;;3.33;1.90;;;;;;;27.27;49.93;101295.78;143723;569;47002;-68
2022/06/29 03:48:36;;;;;;;3.97;2.05;;;;;;;27.20;48.72;101309.91;143725;575;46010;-68
2022/06/29 03:51:03;;;;;;;4.35;2.03;;;;;;;27.22;48.38;101307.69;143722;630;47004;-68
2022/06/29 03:53:29;;;;;;;3.75;2.12;;;;;;;27.30;47.42;101307.03;143726;606;46006;-68
2022/06/29 03:55:56;;;;;;;3.15;1.92;;;;;;;27.28;47.55;101308.41;143724;590;47004;-68
2022/06/29 03:58:23;;;;;;;2.17;1.90;;;;;;;27.25;47.72;101304.31;143725;596;46026;-68
2022/06/29 04:00:49;;;;;;;4.68;2.70;;;;;;;27.28;46.62;101309.25;143718;566;49008;-69
2022/06/29 04:03:15;;;;;;;3.20;2.00;;;;;;;27.38;47.05;101311.84;143725;604;46006;-67
2022/06/29 04:05:42;;;;;;;2.83;2.28;;;;;;;27.42;47.28;101302.97;143724;599;47000;-68
2022/06/29 04:08:08;;;;;;;4.10;2.33;;;;;;;27.45;47.56;101328.03;143727;588;46008;-68
2022/06/29 04:10:35;;;;;;;5.32;2.33;;;;;;;27.45;47.78;101324.47;143719;650;47004;-68
2022/06/29 04:13:01;;;;;;;7.57;1.85;;;;;;;27.44;47.80;101329.16;143725;628;46006;-68
2022/06/29 04:15:27;;;;;;;2.42;2.10;;;;;;;27.50;47.37;101332.69;143725;588;47002;-68
2022/06/29 04:17:54;;;;;;;3.33;2.17;;;;;;;27.46;47.58;101335.22;143727;574;46008;-68
2022/06/29 04:23:04;;;;;;;6.00;2.37;;;;;;;27.47;48.48;101336.06;143721;585;47000;-68
2022/06/29 04:25:31;;;;;;;3.15;2.22;;;;;;;27.46;48.63;101334.41;143724;656;47002;-68
2022/06/29 04:27:58;;;;;;;3.47;2.47;;;;;;;27.46;49.39;101334.41;143727;582;46008;-68
2022/06/29 04:30:24;;;;;;;3.80;2.08;;;;;;;27.51;49.25;101337.91;143722;572;47002;-68
2022/06/29 04:32:50;;;;;;;3.20;2.37;;;;;;;27.50;49.60;101332.69;143726;672;46006;-68
2022/06/29 04:35:17;;;;;;;7.53;3.78;;;;;;;27.52;48.43;101328.50;143724;589;47004;-69
2022/06/29 04:37:44;;;;;;;4.55;3.08;;;;;;;27.60;47.82;101335.28;143725;622;46008;-68
2022/06/29 04:40:11;;;;;;;5.28;3.12;;;;;;;27.66;47.46;101333.25;143722;610;47004;-68
2022/06/29 04:42:37;;;;;;;6.55;3.20;;;;;;;27.70;46.74;101334.31;143726;609;46006;-68
2022/06/29 04:45:05;;;;;;;12.00;3.87;;;;;;;27.71;47.67;101337.91;143726;595;47000;-68
2022/06/29 04:47:31;;;;;;;6.43;3.35;;;;;;;27.68;47.72;101331.87;143723;602;47004;-69
2022/06/29 04:49:57;;;;;;;8.10;3.00;;;;;;;27.73;46.93;101327.38;143723;604;47002;-68
2022/06/29 04:52:26;;;;;;;6.43;3.17;;;;;;;27.75;46.49;101327.88;143726;575;46006;-68
2022/06/29 04:54:53;;;;;;;10.70;3.50;;;;;;;27.77;46.64;101323.72;143724;613;47004;-68
2022/06/29 04:57:19;;;;;;;6.87;3.17;;;;;;;27.78;46.26;101325.37;143725;568;46010;-68
2022/06/29 04:59:45;;;;;;;9.52;4.03;;;;;;;27.71;46.99;101321.34;143726;585;46008;-68
2022/06/29 05:02:12;;;;;;;9.50;4.40;;;;;;;27.72;47.03;101317.44;143724;700;46002;-69
2022/06/29 05:04:38;;;;;;;7.53;4.15;;;;;;;27.73;46.95;101330.12;143723;575;47003;-68
2022/06/29 05:07:04;;;;;;;4.78;4.18;;;;;;;27.78;46.89;101327.28;143725;613;46008;-68
2022/06/29 05:09:31;;;;;;;5.50;3.30;;;;;;;27.76;47.22;101327.59;143723;592;47004;-68
2022/06/29 05:11:57;;;;;;;6.47;3.53;;;;;;;27.84;47.04;101331.63;143724;618;46920;-68
2022/06/29 05:14:24;;;;;;;10.95;2.95;;;;;;;27.83;47.07;101330.78;143725;608;47004;-68
2022/06/29 05:16:50;;;;;;;8.23;4.12;;;;;;;27.85;47.66;101327.75;143724;626;46010;-68
2022/06/29 05:19:17;;;;;;;4.93;2.90;;;;;;;27.72;46.92;101334.84;143724;575;46005;-67
2022/06/29 05:21:43;;;;;;;7.43;2.83;;;;;;;27.74;46.75;101337.28;143725;572;46006;-68
2022/06/29 05:24:09;;;;;;;4.22;2.55;;;;;;;27.81;45.54;101343.25;143723;567;47002;-69
2022/06/29 05:26:37;;;;;;;5.45;2.20;;;;;;;27.87;45.19;101347.59;143725;589;46010;-69
2022/06/29 05:29:04;;;;;;;3.25;2.22;;;;;;;27.90;45.37;101332.34;143721;622;47004;-69
2022/06/29 05:31:31;;;;;;;2.70;2.00;;;;;;;27.99;45.41;101336.88;143726;644;46006;-69
2022/06/29 05:33:57;;;;;;;4.53;2.17;;;;;;;28.05;45.36;101340.38;143725;591;47000;-68
2022/06/29 05:36:23;;;;;;;3.85;2.15;;;;;;;28.12;44.51;101343.59;143725;652;46010;-69
2022/06/29 05:38:50;;;;;;;2.42;1.92;;;;;;;28.16;44.39;101334.69;143723;588;47002;-67
2022/06/29 05:41:16;;;;;;;4.68;2.03;;;;;;;28.26;44.21;101324.28;143726;658;46018;-68
2022/06/29 05:43:44;;;;;;;4.47;2.10;;;;;;;28.29;44.02;101337.47;143722;590;47002;-68
2022/06/29 05:46:11;;;;;;;6.60;2.47;;;;;;;28.36;43.97;101327.97;143724;574;46010;-68
2022/06/29 05:48:37;;;;;;;4.25;1.95;;;;;;;28.39;44.17;101339.25;143722;723;47004;-68
2022/06/29 05:51:04;;;;;;;5.18;2.45;;;;;;;28.44;44.63;101332.78;143725;605;46006;-68
2022/06/29 05:53:30;;;;;;;5.68;1.90;;;;;;;28.50;44.90;101345.41;143725;600;47002;-68
2022/06/29 05:55:56;;;;;;;2.62;1.95;;;;;;;28.62;45.14;101336.59;143723;573;46010;-68
2022/06/29 05:58:23;;;;;;;3.55;2.12;;;;;;;28.71;45.13;101339.47;143723;699;47004;-68
2022/06/29 06:00:50;;;;;;;4.82;2.20;;;;;;;28.80;45.04;101334.87;143725;575;46006;-69
2022/06/29 06:03:17;;;;;;;2.70;2.20;;;;;;;28.93;44.55;101335.19;143723;643;47003;-67
2022/06/29 06:05:43;;;;;;;3.87;2.22;;;;;;;28.99;44.15;101334.78;143728;589;46008;-67
2022/06/29 06:08:11;;;;;;;2.60;1.80;;;;;;;29.05;43.14;101330.75;143722;643;47004;-67
2022/06/29 06:10:38;;;;;;;3.30;2.10;;;;;;;29.12;43.08;101332.28;143725;577;46007;-67
2022/06/29 06:13:05;;;;;;;2.50;2.17;;;;;;;29.15;43.16;101334.44;143725;597;47000;-69
2022/06/29 06:15:33;;;;;;;4.10;2.08;;;;;;;29.17;43.05;101337.72;143726;649;46921;-67
2022/06/29 06:18:01;;;;;;;2.60;2.05;;;;;;;29.25;42.89;101334.19;143721;596;47004;-68
2022/06/29 06:20:28;;;;;;;5.65;3.00;;;;;;;29.32;43.51;101340.12;143725;737;46006;-68
2022/06/29 06:22:55;;;;;;;3.12;2.78;;;;;;;29.40;42.44;101340.53;143722;679;47002;-68
2022/06/29 06:25:22;;;;;;;8.60;3.50;;;;;;;29.46;41.89;101334.59;143724;670;47008;-68
2022/06/29 06:27:48;;;;;;;4.53;1.95;;;;;;;29.53;42.18;101328.63;143724;602;46006;-68
2022/06/29 06:30:15;;;;;;;5.72;4.40;;;;;;;29.57;41.38;101335.16;143724;575;46006;-67
2022/06/29 06:32:41;;;;;;;4.45;1.73;;;;;;;29.60;40.79;101330.97;143720;594;49002;-68
2022/06/29 06:35:09;;;;;;;3.05;2.05;;;;;;;29.65;39.85;101336.38;143725;577;47008;-68
2022/06/29 06:37:35;;;;;;;3.85;2.40;;;;;;;29.67;39.93;101336.84;143721;574;47004;-73
2022/06/29 06:42:46;;;;;;;5.20;2.03;;;;;;;29.75;40.02;101322.28;143725;653;47008;-74
2022/06/29 06:45:12;;;;;;;3.78;2.37;;;;;;;29.82;39.73;101319.06;143726;578;46010;-74
2022/06/29 06:47:39;;;;;;;4.05;2.10;;;;;;;29.89;39.96;101316.69;143724;591;47004;-75
2022/06/29 06:50:06;;;;;;;3.33;2.20;;;;;;;29.98;40.19;101324.25;143726;581;46006;-74
2022/06/29 06:52:32;;;;;;;3.45;2.00;;;;;;;30.04;40.25;101323.78;143726;599;47004;-75
2022/06/29 06:54:59;;;;;;;5.18;2.50;;;;;;;30.06;39.85;101318.75;143725;644;46010;-76
2022/06/29 06:57:25;;;;;;;4.85;2.15;;;;;;;30.14;39.40;101319.13;143725;630;47002;-76
2022/06/29 06:59:53;;;;;;;6.50;2.30;;;;;;;30.19;39.35;101317.03;143725;573;46006;-76
2022/06/29 07:02:32;;;;;;;4.72;2.65;;;;;;;30.30;40.58;101312.03;143729;611;46004;-72
2022/06/29 07:05:11;;;;;;;2.45;2.20;;;;;;;30.39;41.12;101323.97;143729;590;45926;-72
2022/06/29 07:07:45;;;;;;;3.33;2.30;;;;;;;30.47;39.29;101318.78;168479;57;50825;-78
2022/06/29 07:10:11;;;;;;;;;;;;;;;30.55;39.30;101318.00;143728;985;46007;-74
2022/06/29 07:12:38;;;;;;;4.45;2.10;;;;;;;30.61;39.07;101315.94;159450;57;263274;-76
2022/06/29 07:15:06;;;;;;;3.03;2.15;;;;;;;30.70;38.75;101320.38;143721;603;47006;-77
2022/06/29 07:17:32;;;;;;;5.15;2.40;;;;;;;30.77;38.21;101313.53;143722;581;47002;-76
2022/06/29 07:19:59;;;;;;;5.35;2.90;;;;;;;30.78;38.19;101320.69;143723;584;46006;-74
2022/06/29 07:22:25;;;;;;;4.85;2.25;;;;;;;30.76;39.03;101317.44;143723;604;47002;-75
2022/06/29 07:24:52;;;;;;;6.80;2.70;;;;;;;30.82;40.39;101316.97;143724;573;46924;-74
2022/06/29 07:27:18;;;;;;;5.15;2.22;;;;;;;30.88;38.69;101317.66;143724;598;46004;-74
2022/06/29 07:29:44;;;;;;;2.95;2.50;;;;;;;30.94;37.82;101318.31;143725;575;46006;-74
2022/06/29 07:32:11;;;;;;;6.03;2.20;;;;;;;31.02;38.88;101306.38;143724;586;47000;-74
2022/06/29 07:34:37;;;;;;;6.25;2.75;;;;;;;31.11;38.96;101309.19;143724;599;46011;-74
2022/06/29 07:37:04;;;;;;;2.53;2.33;;;;;;;31.17;39.41;101315.41;143723;627;47004;-73
2022/06/29 07:39:30;;;;;;;5.65;2.50;;;;;;;31.19;38.57;101316.72;143726;629;46006;-73
2022/06/29 07:41:57;;;;;;;6.07;2.70;;;;;;;31.18;39.29;101308.72;143724;573;47002;-74
2022/06/29 07:44:24;;;;;;;4.35;2.72;;;;;;;31.23;38.30;101303.00;143724;591;46923;-73
2022/06/29 07:46:50;;;;;;;3.97;2.70;;;;;;;31.27;37.57;101299.25;143723;573;47002;-74
2022/06/29 07:49:16;;;;;;;3.42;2.72;;;;;;;31.28;37.96;101311.19;143725;599;46007;-76
2022/06/29 07:51:43;;;;;;;4.78;3.03;;;;;;;31.27;37.57;101304.81;143726;572;47004;-74
2022/06/29 07:54:09;;;;;;;2.55;2.28;;;;;;;31.19;38.12;101300.09;143726;566;47924;-73
2022/06/29 07:56:36;;;;;;;6.28;2.87;;;;;;;31.03;37.98;101312.78;143724;611;47004;-74
2022/06/29 07:59:05;;;;;;;4.05;2.40;;;;;;;30.90;38.48;101309.00;143726;594;46925;-78
2022/06/29 08:01:31;;;;;;;7.20;2.83;;;;;;;30.99;38.98;101310.63;143725;579;47004;-74
2022/06/29 08:03:58;;;;;;;5.47;2.83;;;;;;;31.12;38.74;101299.72;143722;599;47006;-74
2022/06/29 08:06:25;;;;;;;3.33;2.20;;;;;;;31.20;37.50;101298.13;143726;603;47002;-74
2022/06/29 08:08:52;;;;;;;5.15;2.50;;;;;;;31.25;37.74;101293.22;143726;646;46006;-74
2022/06/29 08:11:18;;;;;;;17.90;2.92;;;;;;;31.03;38.31;101301.69;143726;578;47002;-74
2022/06/29 08:13:45;;;;;;;4.45;2.83;;;;;;;30.84;39.06;101295.25;143724;632;47923;-75
2022/06/29 08:16:11;;;;;;;4.47;2.40;;;;;;;30.81;39.08;101298.69;143723;588;46004;-76
2022/06/29 08:18:38;;;;;;;3.58;2.60;;;;;;;30.93;38.91;101302.81;143720;575;47926;-76
2022/06/29 08:21:05;;;;;;;4.57;2.78;;;;;;;31.07;38.52;101305.41;143722;569;47004;-77
2022/06/29 08:23:31;;;;;;;6.50;2.78;;;;;;;31.04;38.53;101297.75;143724;566;47012;-75
2022/06/29 08:25:58;;;;;;;7.35;2.80;;;;;;;31.07;37.90;101297.09;143723;594;47011;-77
2022/06/29 08:28:27;;;;;;;5.47;2.75;;;;;;;31.15;38.13;101304.66;143723;614;46008;-75
2022/06/29 08:30:54;;;;;;;5.62;3.15;;;;;;;31.34;38.07;101292.41;143723;580;47004;-73
2022/06/29 08:33:23;;;;;;;3.17;2.87;;;;;;;31.30;38.07;101298.59;143724;624;46012;-76
2022/06/29 08:35:50;;;;;;;5.03;3.25;;;;;;;31.30;38.54;101295.03;143723;612;47006;-74
2022/06/29 08:38:17;;;;;;;5.03;2.65;;;;;;;31.41;37.81;101292.75;143723;568;46008;-75
2022/06/29 08:40:46;;;;;;;4.12;2.92;;;;;;;31.42;37.72;101284.06;143727;574;47006;-75
2022/06/29 08:43:14;;;;;;;4.75;2.75;;;;;;;31.43;37.79;101295.97;143725;578;46012;-74
2022/06/29 08:45:47;;;;;;;4.87;3.05;;;;;;;31.45;36.85;101288.16;143723;572;48006;-74
2022/06/29 08:48:15;;;;;;;2.90;2.60;;;;;;;31.45;37.90;101286.22;143721;595;49019;-74
2022/06/29 08:50:43;;;;;;;3.67;2.53;;;;;;;31.61;37.90;101286.50;143725;602;47004;-78
2022/06/29 08:53:13;;;;;;;3.22;2.65;;;;;;;31.63;37.49;101277.84;143725;572;46012;-76
2022/06/29 08:55:45;;;;;;;5.15;2.70;;;;;;;31.74;37.91;101273.59;143726;570;47005;-75
2022/06/29 08:58:25;;;;;;;4.20;2.80;;;;;;;31.69;37.09;101270.16;143724;601;47008;-79
2022/06/29 09:00:52;;;;;;;4.72;2.55;;;;;;;31.51;37.55;101281.28;143726;656;47004;-78
2022/06/29 09:03:21;;;;;;;4.70;2.80;;;;;;;31.57;37.83;101273.59;143728;633;46010;-75
2022/06/29 09:05:48;;;;;;;4.75;2.90;;;;;;;31.67;36.77;101272.44;143722;595;47004;-78
2022/06/29 09:08:18;;;;;;;3.12;2.70;;;;;;;31.68;36.80;101280.44;143724;572;46008;-80
2022/06/29 09:10:45;;;;;;;7.68;3.20;;;;;;;31.61;36.80;101278.16;143724;609;47004;-79
2022/06/29 09:13:18;;;;;;;3.40;2.55;;;;;;;31.68;36.80;101286.00;203579;57;50135;-79
2022/06/29 09:15:44;;;;;;;5.60;2.80;;;;;;;31.77;36.74;101285.19;143723;572;47004;-80
2022/06/29 09:18:45;;;;;;;4.72;2.95;;;;;;;31.75;37.70;101278.00;143728;635;46006;-79
2022/06/29 09:21:11;;;;;;;4.95;2.70;;;;;;;31.73;37.11;101280.31;143726;593;47000;-80
2022/06/29 09:23:38;;;;;;;6.47;2.90;;;;;;;31.68;37.70;101286.00;143724;635;47010;-81
2022/06/29 09:26:04;;;;;;;7.60;3.45;;;;;;;31.75;37.17;101274.44;143720;567;49004;-80
2022/06/29 09:28:32;;;;;;;4.32;2.95;;;;;;;31.83;37.18;101265.25;143725;574;47002;-78
2022/06/29 09:30:59;;;;;;;4.97;3.15;;;;;;;31.93;36.85;101272.41;143731;597;46006;-79
2022/06/29 09:33:31;;;;;;;6.00;3.40;;;;;;;32.01;37.00;101274.37;143725;646;46009;-77
2022/06/29 09:36:13;;;;;;;4.50;3.30;;;;;;;32.07;36.03;101280.56;143724;637;47004;-79
2022/06/29 09:38:40;;;;;;;6.18;2.65;;;;;;;31.90;36.55;101271.13;143726;572;46006;-78
2022/06/29 09:41:14;;;;;;;7.62;2.67;;;;;;;31.98;36.43;101275.03;143725;590;47002;-78
2022/06/29 09:43:45;;;;;;;5.07;2.60;;;;;;;32.08;36.04;101271.06;143728;620;46021;-77
2022/06/29 09:46:15;;;;;;;5.57;2.70;;;;;;;32.00;36.16;101274.69;143726;605;47002;-79
2022/06/29 09:48:42;;;;;;;3.65;2.58;;;;;;;31.87;36.65;101276.50;143726;622;46925;-82
2022/06/29 09:54:10;;;;;;;5.00;3.00;;;;;;;31.57;36.54;101279.16;143726;639;46008;-77
2022/06/29 09:56:45;;;;;;;4.28;2.30;;;;;;;31.38;36.22;101273.97;143721;591;48998;-78
2022/06/29 09:59:14;;;;;;;5.20;2.60;;;;;;;31.65;35.65;101272.78;143727;584;46924;-78
2022/06/29 10:04:27;;;;;;;6.53;2.65;;;;;;;31.60;35.64;101289.62;143724;617;47008;-78
2022/06/29 10:06:54;;;;;;;6.47;2.58;;;;;;;31.65;35.97;101261.69;143723;577;47004;-77
2022/06/29 10:09:20;;;;;;;2.60;2.40;;;;;;;31.95;35.71;101263.78;143725;592;46007;-77
2022/06/29 10:15:53;;;;;;;3.10;2.17;;;;;;;32.17;34.74;101280.16;143725;566;47008;-81
2022/06/29 10:18:48;;;;;;;10.75;2.70;;;;;;;32.28;34.41;101280.66;143723;598;47004;-78
2022/06/29 10:21:22;;;;;;;4.45;2.75;;;;;;;32.08;34.70;101270.22;143723;634;49006;-76
2022/06/29 10:23:53;;;;;;;4.35;2.50;;;;;;;32.13;34.13;101264.50;143727;646;47004;-78
2022/06/29 10:26:48;;;;;;;4.62;2.65;;;;;;;32.15;34.98;101265.00;143726;584;46010;-76
2022/06/29 10:29:32;;;;;;;13.25;3.22;;;;;;;32.11;35.70;101269.56;143723;616;47002;-78
2022/06/29 10:32:02;;;;;;;4.80;2.47;;;;;;;32.19;35.49;101275.09;143726;594;46013;-76
2022/06/29 10:37:31;;;;;;;5.20;2.67;;;;;;;32.28;34.00;101277.06;143727;615;47002;-80
2022/06/29 10:40:01;;;;;;;4.95;2.60;;;;;;;32.21;34.98;101272.00;143723;597;47004;-77
2022/06/29 10:45:47;;;;;;;4.35;2.50;;;;;;;32.18;34.12;101267.09;143729;574;46011;-79
2022/06/29 10:48:15;;;;;;;9.75;2.95;;;;;;;32.32;31.77;101264.94;143723;697;48008;-83
2022/06/29 10:50:43;;;;;;;3.62;2.80;;;;;;;32.32;31.51;101276.06;143726;633;47004;-79
2022/06/29 10:53:15;;;;;;;4.12;2.55;;;;;;;32.55;32.56;101267.44;143726;624;48002;-79
2022/06/29 10:55:55;;;;;;;4.68;2.42;;;;;;;32.68;31.56;101264.75;143724;568;47002;-78
2022/06/29 10:58:22;;;;;;;6.20;2.60;;;;;;;32.42;32.45;101257.34;143727;578;46926;-78
2022/06/29 11:00:52;;;;;;;3.33;2.35;;;;;;;32.41;31.84;101264.06;143726;601;47002;-77
2022/06/29 11:03:26;;;;;;;3.85;2.40;;;;;;;32.50;31.58;101251.75;143725;590;46006;-79
2022/06/29 11:16:59;;;;;;;2.78;2.20;;;;;;;32.78;29.84;101244.88;143723;578;47004;-78
2022/06/29 11:19:34;;;;;;;2.75;2.15;;;;;;;32.97;30.38;101241.66;143715;582;49008;-79
2022/06/29 11:22:11;;;;;;;6.07;2.40;;;;;;;33.13;29.75;101238.25;143722;652;47008;-78
2022/06/29 11:24:53;;;;;;;4.10;2.35;;;;;;;32.98;29.99;101242.47;143714;573;47006;-78
2022/06/29 11:27:48;;;;;;;3.42;2.60;;;;;;;33.05;29.56;101237.19;143721;583;47004;-76
2022/06/29 11:30:21;;;;;;;2.67;2.47;;;;;;;33.06;29.98;101230.47;143722;628;47004;-75
2022/06/29 11:32:49;;;;;;;5.97;2.80;;;;;;;33.09;30.05;101235.34;143719;604;48002;-76
2022/06/29 11:35:23;;;;;;;3.28;2.28;;;;;;;32.98;29.93;101225.78;143718;579;47006;-78
2022/06/29 11:37:54;;;;;;;7.93;2.53;;;;;;;33.07;29.40;101226.53;143706;593;49002;-73
2022/06/29 11:40:34;;;;;;;3.87;2.58;;;;;;;33.17;29.80;101220.53;143722;593;47008;-75
2022/06/29 11:43:11;;;;;;;3.33;2.70;;;;;;;33.22;29.71;101225.88;143719;663;48008;-75
2022/06/29 11:45:52;;;;;;;3.75;2.40;;;;;;;33.27;29.51;101222.06;143715;589;49000;-75
2022/06/29 11:48:24;;;;;;;4.97;2.75;;;;;;;33.15;29.84;101227.59;143724;665;47010;-76
2022/06/29 11:51:11;;;;;;;4.75;2.62;;;;;;;33.02;29.82;101208.03;143716;605;47013;-74
2022/06/29 11:53:53;;;;;;;5.10;2.83;;;;;;;32.95;30.03;101208.59;143724;586;47008;-75
2022/06/29 11:56:26;;;;;;;2.97;2.42;;;;;;;32.94;29.00;101208.94;143713;614;47006;-74
2022/06/29 11:58:54;;;;;;;;;;;;;;;32.88;29.45;101216.69;143729;984;47004;-75
2022/06/29 12:01:22;;;;;;;4.70;2.65;;;;;;;32.90;30.17;101208.81;143718;584;47010;-76
2022/06/29 12:03:54;;;;;;;3.42;2.50;;;;;;;32.92;29.81;101214.84;143717;589;49004;-75
2022/06/29 12:06:23;;;;;;;3.47;2.50;;;;;;;32.99;29.92;101208.75;143720;672;47010;-78
2022/06/29 12:08:53;;;;;;;4.93;2.87;;;;;;;33.09;30.27;101201.97;143721;628;47009;-75